Time;durP1;ratioP1;P1;durP2;ratioP2;P2;SDS_P1;SDS_P2;PMS_P1;PMS_P2;Temp;Humidity;BMP_temperature;BMP_pressure;BME280_temperature;BME280_humidity;BME280_pressure;Samples;Min_cycle;Max_cycle;Signal;HPM_P1;HPM_P2
2023/08/18 00:01:06;;;;;;;4.00;2.13;;;;;;;22.46;72.85;99503.44;4889805;29;20100;-81
2023/08/18 00:03:50;;;;;;;6.15;2.15;;;;;;;22.18;73.67;99492.06;4889754;29;20046;-81
2023/08/18 00:06:34;;;;;;;6.63;2.40;;;;;;;22.48;72.65;99493.31;4885261;29;20097;-81
2023/08/18 00:09:18;;;;;;;4.68;2.42;;;;;;;22.19;73.36;99501.69;4891484;29;20115;-81
2023/08/18 00:12:01;;;;;;;13.20;2.53;;;;;;;22.47;72.69;99497.03;4885140;29;20460;-81
2023/08/18 00:14:46;;;;;;;9.38;2.70;;;;;;;22.28;72.98;99486.78;4886327;29;20652;-82
2023/08/18 00:17:30;;;;;;;5.07;2.55;;;;;;;22.36;73.02;99490.81;4888479;29;20100;-81
2023/08/18 00:20:14;;;;;;;5.45;2.40;;;;;;;22.57;72.25;99483.69;4887432;29;20043;-81
2023/08/18 00:22:58;;;;;;;7.15;2.35;;;;;;;22.54;72.63;99502.94;4887748;29;20039;-81
2023/08/18 00:25:42;;;;;;;6.03;2.53;;;;;;;22.55;72.08;99496.53;4887478;29;20586;-81
2023/08/18 00:28:26;;;;;;;5.40;2.50;;;;;;;22.44;72.50;99500.22;4886691;29;20069;-81
2023/08/18 00:31:10;;;;;;;6.53;2.63;;;;;;;22.64;71.95;99500.31;4885492;29;21944;-82
2023/08/18 00:33:54;;;;;;;4.95;2.60;;;;;;;22.47;72.51;99505.06;4886349;29;20055;-82
2023/08/18 00:36:38;;;;;;;6.88;3.10;;;;;;;22.50;72.57;99501.88;4887549;29;20048;-81
2023/08/18 00:39:22;;;;;;;7.95;3.60;;;;;;;22.00;73.58;99510.16;4884067;29;20044;-81
2023/08/18 00:42:07;;;;;;;8.23;2.50;;;;;;;22.28;72.77;99513.53;4883982;29;20534;-82
2023/08/18 00:44:51;;;;;;;10.50;3.00;;;;;;;22.19;73.19;99507.03;4886546;29;20105;-81
2023/08/18 00:47:36;;;;;;;8.15;2.83;;;;;;;22.45;72.57;99502.63;4888675;29;20039;-81
2023/08/18 00:50:20;;;;;;;3.50;2.20;;;;;;;22.21;72.69;99502.28;4888071;29;20084;-82
2023/08/18 00:53:04;;;;;;;8.73;3.60;;;;;;;22.10;73.17;99491.50;4885374;29;20051;-82
2023/08/18 00:55:48;;;;;;;4.05;2.60;;;;;;;22.49;72.15;99484.22;4887629;29;20435;-82
2023/08/18 00:58:34;;;;;;;7.53;2.83;;;;;;;22.24;72.93;99477.69;4889442;29;20072;-82
2023/08/18 01:01:19;;;;;;;9.25;3.22;;;;;;;22.13;73.15;99468.00;4885644;29;20071;-82
2023/08/18 01:04:04;;;;;;;7.47;2.78;;;;;;;22.23;72.66;99484.09;4890763;29;20452;-82
2023/08/18 01:06:48;;;;;;;4.40;2.72;;;;;;;22.36;72.83;99483.59;4890719;29;20053;-82
2023/08/18 01:09:32;;;;;;;4.97;2.78;;;;;;;22.21;73.10;99478.22;4890115;29;20052;-82
2023/08/18 01:12:27;;;;;;;5.50;3.30;;;;;;;22.17;73.02;99474.44;4887759;29;20423;-82
2023/08/18 01:15:15;;;;;;;7.63;2.78;;;;;;;22.05;73.18;99475.47;4884488;29;20398;-82
2023/08/18 01:18:01;;;;;;;7.03;3.47;;;;;;;22.43;72.45;99463.84;4881659;29;20420;-82
2023/08/18 01:20:47;;;;;;;8.52;3.15;;;;;;;22.32;72.84;99463.78;4886590;29;20047;-82
2023/08/18 01:23:38;;;;;;;6.35;3.13;;;;;;;22.53;72.32;99461.22;4885476;29;20051;-82
2023/08/18 01:26:22;;;;;;;7.65;2.80;;;;;;;22.20;72.91;99455.19;4884414;29;20080;-82
2023/08/18 01:29:06;;;;;;;7.65;2.95;;;;;;;21.82;73.53;99441.94;4889318;29;20055;-82
2023/08/18 01:31:52;;;;;;;6.32;2.90;;;;;;;22.24;73.29;99448.28;4888811;29;22147;-83
2023/08/18 01:34:40;;;;;;;4.30;2.83;;;;;;;22.17;72.83;99445.84;4881636;29;20576;-82
2023/08/18 01:37:27;;;;;;;8.15;2.88;;;;;;;21.83;73.32;99444.34;4886888;29;20128;-82
2023/08/18 01:40:14;;;;;;;6.45;3.15;;;;;;;22.15;72.90;99439.13;4886731;29;20100;-82
2023/08/18 01:42:58;;;;;;;6.65;3.10;;;;;;;21.93;73.11;99421.41;4889367;29;20073;-82
2023/08/18 01:45:42;;;;;;;8.35;3.17;;;;;;;21.55;74.09;99411.56;4889478;29;20450;-83
2023/08/18 01:48:27;;;;;;;6.63;3.08;;;;;;;21.63;74.10;99418.28;4886779;29;20124;-81
2023/08/18 01:51:11;;;;;;;5.50;2.67;;;;;;;21.71;73.48;99419.69;4887424;29;20111;-81
2023/08/18 01:53:55;;;;;;;8.15;3.00;;;;;;;21.66;73.72;99417.78;4890984;29;20088;-81
2023/08/18 01:56:39;;;;;;;12.48;3.20;;;;;;;21.82;73.02;99415.22;4886510;29;20088;-81
2023/08/18 01:59:24;;;;;;;8.32;2.95;;;;;;;21.85;73.07;99413.91;4888259;29;20048;-81
2023/08/18 02:02:08;;;;;;;8.68;3.08;;;;;;;21.75;73.48;99415.44;4882724;29;20100;-81
2023/08/18 02:04:55;;;;;;;7.25;2.47;;;;;;;21.38;74.24;99405.56;4886493;29;20051;-81
2023/08/18 02:07:39;;;;;;;8.70;3.08;;;;;;;21.79;73.75;99405.84;4886341;29;20063;-81
2023/08/18 02:10:23;;;;;;;5.40;2.85;;;;;;;21.97;73.51;99401.91;4884867;29;20079;-81
2023/08/18 02:13:09;;;;;;;6.50;2.90;;;;;;;21.97;73.32;99387.75;4884374;29;20047;-82
2023/08/18 02:15:53;;;;;;;5.05;3.00;;;;;;;21.77;73.78;99380.47;4886951;29;20096;-81
2023/08/18 02:18:38;;;;;;;8.82;3.30;;;;;;;21.74;73.50;99383.66;4886598;29;20518;-82
2023/08/18 02:21:22;;;;;;;6.10;3.03;;;;;;;21.76;74.04;99379.63;4886401;29;20198;-81
2023/08/18 02:24:06;;;;;;;5.97;2.75;;;;;;;21.76;73.62;99387.66;4885002;29;20202;-81
2023/08/18 02:26:50;;;;;;;5.97;2.85;;;;;;;21.99;73.31;99384.81;4882959;29;20513;-81
2023/08/18 02:29:34;;;;;;;5.18;2.45;;;;;;;22.22;72.68;99396.94;4881807;29;20112;-82
2023/08/18 02:32:18;;;;;;;6.75;2.67;;;;;;;22.10;72.89;99381.91;4888264;29;20112;-82
2023/08/18 02:35:02;;;;;;;6.03;2.95;;;;;;;21.82;73.20;99361.78;4886861;29;20063;-82
2023/08/18 02:37:47;;;;;;;8.60;2.97;;;;;;;21.86;73.27;99368.19;4884316;29;20105;-83
2023/08/18 02:40:30;;;;;;;5.82;2.83;;;;;;;21.81;73.35;99376.19;4885979;29;20047;-82
2023/08/18 02:43:14;;;;;;;6.38;2.85;;;;;;;21.70;73.15;99378.03;4882721;29;20407;-82
2023/08/18 02:46:02;;;;;;;7.60;3.47;;;;;;;21.73;73.51;99377.50;4884810;29;20391;-82
2023/08/18 02:48:46;;;;;;;7.38;3.00;;;;;;;21.65;73.66;99381.47;4883275;29;20545;-82
2023/08/18 02:51:30;;;;;;;8.45;3.70;;;;;;;21.91;73.60;99375.44;4880299;29;20067;-83
2023/08/18 02:54:14;;;;;;;6.28;2.90;;;;;;;22.24;72.29;99374.19;4883440;29;20112;-82
2023/08/18 02:56:58;;;;;;;5.55;2.83;;;;;;;22.22;72.20;99365.63;4883210;29;20128;-82
2023/08/18 02:59:42;;;;;;;7.85;3.10;;;;;;;21.53;73.32;99364.81;4887792;29;20125;-82
2023/08/18 03:02:26;;;;;;;5.72;2.92;;;;;;;21.94;73.14;99378.41;4887103;29;20048;-82
2023/08/18 03:05:11;;;;;;;6.20;3.60;;;;;;;21.66;73.22;99376.94;4883849;29;20052;-82
2023/08/18 03:07:55;;;;;;;8.40;2.60;;;;;;;21.42;73.67;99380.00;4885336;29;20093;-82
2023/08/18 03:10:39;;;;;;;5.88;2.83;;;;;;;21.92;72.90;99382.38;4886079;29;20411;-82
2023/08/18 03:13:24;;;;;;;5.78;2.53;;;;;;;21.90;73.26;99390.66;4884984;29;20044;-82
2023/08/18 03:16:08;;;;;;;7.22;3.00;;;;;;;21.96;72.82;99389.63;4883946;29;20048;-82
2023/08/18 03:18:52;;;;;;;5.00;2.80;;;;;;;21.86;73.13;99378.09;4886491;29;20096;-82
2023/08/18 03:21:36;;;;;;;6.47;3.20;;;;;;;22.06;72.96;99372.81;4881205;29;20146;-81
2023/08/18 03:24:19;;;;;;;7.80;3.38;;;;;;;21.82;73.48;99369.78;4884878;29;20474;-82
2023/08/18 03:27:04;;;;;;;7.35;3.53;;;;;;;21.51;73.95;99369.59;4885554;29;20051;-82
2023/08/18 03:29:48;;;;;;;6.03;3.05;;;;;;;21.44;74.54;99372.53;4882989;29;20510;-82
2023/08/18 03:32:32;;;;;;;7.88;2.85;;;;;;;21.93;73.12;99367.97;4883907;29;20043;-81
2023/08/18 03:35:16;;;;;;;7.68;3.22;;;;;;;21.89;73.36;99372.22;4888630;29;20048;-81
2023/08/18 03:38:01;;;;;;;5.65;3.22;;;;;;;21.66;73.73;99358.25;4890016;29;20099;-81
2023/08/18 03:40:46;;;;;;;5.35;3.22;;;;;;;21.87;73.63;99367.13;4884401;29;20043;-81
2023/08/18 03:43:31;;;;;;;6.78;3.30;;;;;;;21.66;74.03;99364.38;4888071;29;20050;-81
2023/08/18 03:46:20;;;;;;;4.10;3.25;;;;;;;21.54;74.24;99361.88;4886458;29;20064;-80
2023/08/18 03:49:06;;;;;;;4.63;3.20;;;;;;;21.67;74.17;99351.81;4892322;29;20055;-81
2023/08/18 03:51:49;;;;;;;5.57;3.25;;;;;;;21.48;74.59;99349.56;4888567;29;20100;-80
2023/08/18 03:54:33;;;;;;;5.97;3.50;;;;;;;21.73;74.37;99350.00;4889070;29;20052;-80
2023/08/18 03:57:18;;;;;;;8.52;3.83;;;;;;;21.51;74.50;99341.03;4882999;29;20101;-82
2023/08/18 04:00:03;;;;;;;7.72;3.92;;;;;;;21.61;74.84;99347.47;4890506;29;20088;-82
2023/08/18 04:02:47;;;;;;;7.68;3.53;;;;;;;21.52;74.82;99337.31;4886856;29;20048;-82
2023/08/18 04:05:32;;;;;;;7.53;3.20;;;;;;;21.59;74.81;99325.56;4886935;29;20047;-82
2023/08/18 04:08:15;;;;;;;8.05;3.13;;;;;;;21.64;75.16;99317.59;4889392;29;20091;-82
2023/08/18 04:11:00;;;;;;;6.97;3.70;;;;;;;21.33;75.49;99323.59;4890111;29;20447;-82
2023/08/18 04:13:44;;;;;;;10.20;3.85;;;;;;;21.66;75.02;99313.63;4883385;29;20502;-82
2023/08/18 04:16:31;;;;;;;9.93;3.88;;;;;;;21.57;75.18;99314.34;4887630;29;20052;-82
2023/08/18 04:19:15;;;;;;;7.13;3.58;;;;;;;21.61;75.48;99316.25;4892192;29;20529;-81
2023/08/18 04:21:59;;;;;;;6.72;3.53;;;;;;;21.54;75.48;99313.81;4886059;29;20069;-81
2023/08/18 04:24:43;;;;;;;7.57;3.88;;;;;;;21.67;75.56;99312.56;4887762;29;20068;-81
2023/08/18 04:27:27;;;;;;;7.47;3.80;;;;;;;21.51;75.81;99300.97;4884257;29;20044;-82
2023/08/18 04:30:11;;;;;;;9.52;4.03;;;;;;;21.31;77.05;99298.22;4884632;29;20067;-82
2023/08/18 04:32:55;;;;;;;8.68;3.50;;;;;;;21.32;76.74;99299.81;4886346;29;20052;-81
2023/08/18 04:35:39;;;;;;;7.85;3.47;;;;;;;21.28;76.67;99301.41;4884702;29;20100;-81
2023/08/18 04:38:24;;;;;;;8.25;3.83;;;;;;;21.49;76.41;99296.94;4887134;29;20117;-82
2023/08/18 04:41:09;;;;;;;5.63;3.53;;;;;;;21.52;76.31;99299.91;4883955;29;20144;-83
2023/08/18 04:43:53;;;;;;;9.25;4.03;;;;;;;21.61;75.76;99302.06;4888176;29;20456;-82
2023/08/18 04:46:37;;;;;;;6.80;3.67;;;;;;;21.41;76.61;99303.59;4890335;29;20383;-83
2023/08/18 04:49:21;;;;;;;5.50;3.60;;;;;;;21.61;76.01;99294.06;4884610;29;20051;-83
2023/08/18 04:52:07;;;;;;;8.02;3.90;;;;;;;21.32;76.69;99289.97;4891257;29;20052;-82
2023/08/18 04:54:51;;;;;;;7.40;3.60;;;;;;;21.45;76.20;99291.34;4883547;29;20063;-81
2023/08/18 04:57:38;;;;;;;7.40;4.25;;;;;;;21.69;76.36;99289.03;4888803;29;20066;-81
2023/08/18 05:00:23;;;;;;;10.75;3.92;;;;;;;21.85;75.77;99293.66;4889280;29;20057;-82
2023/08/18 05:03:07;;;;;;;7.07;3.65;;;;;;;21.80;75.51;99281.06;4884652;29;20056;-82
2023/08/18 05:06:08;;;;;;;8.52;3.72;;;;;;;21.86;75.32;99276.56;4885584;29;20052;-83
2023/08/18 05:08:52;;;;;;;5.15;3.80;;;;;;;21.50;75.98;99280.69;4880023;29;20096;-82
2023/08/18 05:11:36;;;;;;;10.23;4.10;;;;;;;21.47;75.56;99281.22;4888291;29;20055;-81
2023/08/18 05:14:21;;;;;;;9.23;4.20;;;;;;;21.80;75.20;99294.44;4889053;29;20047;-82
2023/08/18 05:17:05;;;;;;;7.50;4.00;;;;;;;21.47;76.11;99283.88;4886869;29;20117;-81
2023/08/18 05:19:49;;;;;;;9.10;3.80;;;;;;;21.53;76.14;99280.16;4884560;29;20395;-82
2023/08/18 05:22:33;;;;;;;6.93;3.70;;;;;;;21.38;76.03;99288.91;4887477;29;20126;-82
2023/08/18 05:25:17;;;;;;;7.88;3.90;;;;;;;21.43;76.10;99288.13;4884546;29;20092;-82
2023/08/18 05:28:02;;;;;;;7.68;3.65;;;;;;;21.16;76.42;99288.25;4884120;29;20092;-82
2023/08/18 05:30:48;;;;;;;8.82;4.15;;;;;;;21.28;76.52;99288.84;4890788;29;20052;-81
2023/08/18 05:33:32;;;;;;;7.07;3.85;;;;;;;21.76;75.35;99280.00;4884783;29;20092;-82
2023/08/18 05:36:18;;;;;;;6.80;3.58;;;;;;;21.72;75.42;99266.34;4892069;29;20052;-82
2023/08/18 05:39:02;;;;;;;7.10;4.10;;;;;;;21.51;75.82;99262.78;4883918;29;20387;-82
2023/08/18 05:41:46;;;;;;;8.77;3.70;;;;;;;21.48;75.67;99252.63;4887641;29;20119;-81
2023/08/18 05:44:30;;;;;;;8.98;4.25;;;;;;;21.12;76.98;99253.28;4884274;29;20529;-80
2023/08/18 05:47:16;;;;;;;10.02;4.43;;;;;;;21.21;76.88;99234.91;4885169;29;20531;-80
2023/08/18 05:50:01;;;;;;;6.97;4.03;;;;;;;21.83;75.58;99241.28;4883180;29;20469;-80
2023/08/18 05:52:45;;;;;;;10.70;4.38;;;;;;;21.41;76.39;99236.84;4883838;29;20172;-80
2023/08/18 05:55:29;;;;;;;13.25;4.38;;;;;;;21.17;77.32;99233.81;4887395;29;20091;-79
2023/08/18 05:58:13;;;;;;;9.80;4.47;;;;;;;21.55;76.36;99227.28;4885727;29;20070;-81
2023/08/18 06:00:57;;;;;;;9.63;4.20;;;;;;;22.00;75.47;99229.53;4882643;29;20101;-80
2023/08/18 06:03:42;;;;;;;8.80;4.35;;;;;;;21.98;75.45;99220.97;4884838;29;20051;-80
2023/08/18 06:06:26;;;;;;;8.45;4.60;;;;;;;21.62;76.17;99221.69;4884994;29;20043;-79
2023/08/18 06:09:11;;;;;;;8.63;5.03;;;;;;;21.87;76.30;99232.72;4887932;29;20055;-79
2023/08/18 06:11:55;;;;;;;8.93;4.18;;;;;;;22.22;75.61;99229.28;4878889;29;20052;-79
2023/08/18 06:14:39;;;;;;;12.65;4.70;;;;;;;22.28;75.52;99226.59;4880345;29;20091;-79
2023/08/18 06:17:23;;;;;;;11.05;4.55;;;;;;;22.49;74.78;99235.47;4882868;29;20051;-80
2023/08/18 06:20:07;;;;;;;8.65;4.50;;;;;;;22.17;75.22;99233.81;4884631;29;20122;-79
2023/08/18 06:22:51;;;;;;;6.57;4.63;;;;;;;21.46;77.56;99220.84;4884870;29;20064;-79
2023/08/18 06:25:37;;;;;;;7.97;5.22;;;;;;;22.03;76.87;99210.31;4882766;29;20055;-78
2023/08/18 06:28:22;;;;;;;5.45;4.47;;;;;;;22.15;76.91;99209.22;4879573;29;20047;-79
2023/08/18 06:31:07;;;;;;;7.80;4.72;;;;;;;21.78;77.96;99206.53;4882295;29;20051;-80
2023/08/18 06:33:51;;;;;;;9.32;5.43;;;;;;;21.86;77.98;99207.09;4882813;29;20104;-80
2023/08/18 06:36:35;;;;;;;12.43;5.53;;;;;;;21.45;78.91;99211.25;4886621;29;20075;-79
2023/08/18 06:39:19;;;;;;;10.52;5.30;;;;;;;21.83;78.64;99225.25;4889180;29;20111;-79
2023/08/18 06:42:03;;;;;;;9.90;5.20;;;;;;;22.35;77.69;99230.63;4880317;29;20120;-78
2023/08/18 06:44:47;;;;;;;9.68;5.53;;;;;;;22.35;77.35;99225.25;4877977;29;20068;-79
2023/08/18 06:47:31;;;;;;;9.07;5.97;;;;;;;22.22;78.72;99225.81;4884657;29;20055;-78
2023/08/18 06:50:15;;;;;;;12.02;7.03;;;;;;;22.42;78.26;99214.31;4884561;29;20051;-78
2023/08/18 06:52:58;;;;;;;10.18;6.15;;;;;;;22.36;78.18;99204.69;4883602;29;20075;-78
2023/08/18 06:55:42;;;;;;;10.07;6.68;;;;;;;22.23;78.74;99190.00;4880932;29;20064;-78
2023/08/18 06:58:26;;;;;;;15.27;8.15;;;;;;;21.68;79.88;99190.47;4882768;29;20410;-81
2023/08/18 07:01:10;;;;;;;12.77;8.30;;;;;;;21.63;80.83;99198.47;4884650;29;20055;-80
2023/08/18 07:03:54;;;;;;;12.00;8.10;;;;;;;22.28;80.21;99202.53;4880649;29;20459;-81
2023/08/18 07:06:44;;;;;;;24.25;8.27;;;;;;;22.02;80.16;99200.69;4884672;29;20092;-80
2023/08/18 07:09:27;;;;;;;10.80;8.32;;;;;;;22.11;80.19;99199.06;4880987;29;20122;-79
2023/08/18 07:12:12;;;;;;;13.20;7.85;;;;;;;22.44;79.77;99206.81;4886239;29;20047;-79
2023/08/18 07:14:56;;;;;;;18.65;9.52;;;;;;;21.61;81.79;99206.72;4884950;29;20514;-80
2023/08/18 07:17:40;;;;;;;22.58;10.13;;;;;;;21.74;81.84;99193.97;4885989;29;20044;-79
2023/08/18 07:20:24;;;;;;;13.75;9.57;;;;;;;21.92;81.40;99198.00;4887746;29;20096;-79
2023/08/18 07:23:08;;;;;;;22.10;9.98;;;;;;;21.88;82.22;99199.59;4887120;29;20067;-79
2023/08/18 07:25:52;;;;;;;21.83;10.13;;;;;;;22.13;82.09;99203.34;4883690;29;20157;-79
2023/08/18 07:28:37;;;;;;;25.42;12.13;;;;;;;21.65;82.55;99202.50;4884750;29;20164;-78
2023/08/18 07:31:21;;;;;;;14.40;10.60;;;;;;;22.21;81.95;99208.19;4883419;29;20065;-79
2023/08/18 07:34:06;;;;;;;18.88;12.07;;;;;;;22.05;82.50;99210.84;4885820;29;20490;-80
2023/08/18 07:36:50;;;;;;;15.07;10.88;;;;;;;22.16;82.45;99211.66;4881771;29;20051;-81
2023/08/18 07:39:34;;;;;;;24.20;11.75;;;;;;;22.26;81.84;99214.31;4889116;29;20043;-80
2023/08/18 07:42:20;;;;;;;23.45;13.43;;;;;;;22.33;82.25;99200.66;4884461;29;20120;-80
2023/08/18 07:45:05;;;;;;;23.08;13.45;;;;;;;22.78;80.88;99208.09;4886186;29;20152;-80
2023/08/18 07:47:49;;;;;;;23.77;13.65;;;;;;;22.80;80.83;99224.72;4890161;29;20040;-80
2023/08/18 07:50:33;;;;;;;25.90;14.63;;;;;;;22.65;81.19;99223.66;4886996;29;20135;-79
2023/08/18 07:53:17;;;;;;;22.10;12.85;;;;;;;23.13;80.55;99209.06;4883912;29;20136;-80
2023/08/18 07:56:00;;;;;;;23.73;14.02;;;;;;;22.74;81.12;99201.72;4884847;29;20117;-80
2023/08/18 07:58:44;;;;;;;17.30;12.48;;;;;;;23.18;80.31;99219.75;4885298;29;20104;-81
2023/08/18 08:01:29;;;;;;;23.63;12.65;;;;;;;23.38;80.11;99236.84;4887089;29;20056;-80
2023/08/18 08:04:14;;;;;;;23.38;12.88;;;;;;;23.19;80.38;99248.16;4886540;29;20055;-80
2023/08/18 08:06:58;;;;;;;18.00;12.25;;;;;;;23.44;79.99;99243.81;4885183;29;20042;-79
2023/08/18 08:09:42;;;;;;;20.23;11.77;;;;;;;23.56;80.35;99235.44;4887737;29;20071;-80
2023/08/18 08:12:26;;;;;;;20.58;12.85;;;;;;;23.40;80.47;99232.03;4887698;29;20047;-80
2023/08/18 08:15:13;;;;;;;18.60;11.95;;;;;;;23.21;81.20;99221.09;4871278;29;20137;-83
2023/08/18 08:17:57;;;;;;;24.00;12.00;;;;;;;23.23;81.92;99219.75;4887443;29;20456;-83
2023/08/18 08:20:42;;;;;;;20.45;12.20;;;;;;;22.58;84.33;99227.69;4891476;29;20207;-80
2023/08/18 08:23:26;;;;;;;22.70;12.32;;;;;;;22.60;84.67;99226.38;4884245;29;20077;-80
2023/08/18 08:26:10;;;;;;;18.38;11.85;;;;;;;22.59;85.27;99229.28;4880294;29;20046;-80
2023/08/18 08:28:54;;;;;;;24.13;13.85;;;;;;;22.66;85.13;99219.09;4883727;29;20035;-81
2023/08/18 08:31:38;;;;;;;23.02;13.60;;;;;;;22.80;85.34;99230.88;4884161;29;20097;-82
2023/08/18 08:34:22;;;;;;;25.08;19.42;;;;;;;22.61;86.16;99236.00;4887209;29;20051;-81
2023/08/18 08:37:06;;;;;;;22.02;12.93;;;;;;;22.67;86.32;99239.44;4885258;29;20073;-82
2023/08/18 08:39:50;;;;;;;30.85;23.27;;;;;;;22.87;86.57;99235.94;4886458;29;20052;-81
2023/08/18 08:42:34;;;;;;;34.08;21.83;;;;;;;23.07;85.48;99234.28;4887994;29;20052;-78
2023/08/18 08:45:20;;;;;;;23.13;14.20;;;;;;;23.39;84.75;99230.44;4883271;29;20048;-78
2023/08/18 08:48:11;;;;;;;25.48;16.17;;;;;;;23.25;85.75;99232.84;4881038;29;20506;-78
2023/08/18 08:50:58;;;;;;;25.30;14.82;;;;;;;23.47;84.96;99226.34;4877684;29;20043;-78
2023/08/18 08:53:50;;;;;;;21.42;13.88;;;;;;;23.46;85.00;99220.22;4885961;29;20079;-79
2023/08/18 08:56:35;;;;;;;22.00;11.13;;;;;;;23.69;84.53;99217.94;4880898;29;20093;-78
2023/08/18 08:59:20;;;;;;;12.07;10.77;;;;;;;23.79;84.25;99217.06;4882793;29;20047;-79
2023/08/18 09:02:04;;;;;;;17.83;12.02;;;;;;;23.52;85.47;99221.78;4885232;29;20079;-78
2023/08/18 09:04:48;;;;;;;17.08;11.85;;;;;;;22.50;89.47;99231.72;4882482;29;20047;-77
2023/08/18 09:07:32;;;;;;;17.38;10.95;;;;;;;22.90;89.76;99224.69;4881336;29;20407;-78
2023/08/18 09:10:17;;;;;;;13.48;10.38;;;;;;;22.85;90.20;99215.84;4883235;29;20467;-79
2023/08/18 09:13:01;;;;;;;13.32;9.38;;;;;;;23.10;90.11;99215.81;4885343;29;20047;-80
2023/08/18 09:15:45;;;;;;;15.13;10.43;;;;;;;23.16;90.67;99226.47;4889654;29;20044;-83
2023/08/18 09:18:32;;;;;;;15.27;10.00;;;;;;;22.82;91.38;99230.59;4881711;29;20068;-82
2023/08/18 09:21:16;;;;;;;13.90;8.68;;;;;;;23.36;90.68;99228.28;4883537;29;20097;-82
2023/08/18 09:24:00;;;;;;;11.98;8.00;;;;;;;23.34;90.90;99233.13;4887008;29;20100;-82
2023/08/18 09:26:44;;;;;;;12.68;9.00;;;;;;;23.09;91.82;99226.78;4886155;29;20063;-83
2023/08/18 09:29:28;;;;;;;13.25;10.27;;;;;;;23.47;91.16;99213.78;4885551;29;20051;-82
2023/08/18 09:32:12;;;;;;;11.18;7.95;;;;;;;23.64;90.32;99217.97;4884575;29;20051;-81
2023/08/18 09:34:56;;;;;;;17.38;8.07;;;;;;;23.65;90.86;99222.25;4883144;29;20052;-83
2023/08/18 09:37:40;;;;;;;10.30;7.88;;;;;;;23.80;90.35;99216.81;4883306;29;20465;-82
2023/08/18 09:40:25;;;;;;;9.52;7.25;;;;;;;24.03;89.93;99211.84;4887351;29;20112;-81
2023/08/18 09:43:09;;;;;;;9.57;6.85;;;;;;;23.73;90.77;99202.13;4886039;29;20044;-81
2023/08/18 09:45:54;;;;;;;8.07;6.60;;;;;;;24.05;90.72;99204.31;4886073;29;20039;-80
2023/08/18 09:48:42;;;;;;;6.90;6.20;;;;;;;23.96;91.04;99197.91;4886137;29;20077;-82
2023/08/18 09:51:27;;;;;;;8.55;5.40;;;;;;;24.31;89.77;99193.38;4882136;29;20048;-83
2023/08/18 09:54:12;;;;;;;7.85;6.57;;;;;;;24.09;90.71;99194.63;4882989;29;20456;-82
2023/08/18 09:57:02;;;;;;;6.63;5.70;;;;;;;24.14;90.79;99188.44;4889604;29;20105;-82
2023/08/18 09:59:57;;;;;;;8.45;6.15;;;;;;;24.16;91.34;99177.41;4883125;29;20404;-83
2023/08/18 10:02:44;;;;;;;9.18;6.53;;;;;;;24.25;91.03;99191.81;4882793;29;20100;-82
2023/08/18 10:05:28;;;;;;;6.90;5.88;;;;;;;23.99;92.10;99183.97;4884830;29;20053;-81
2023/08/18 10:08:13;;;;;;;7.80;6.00;;;;;;;24.11;91.70;99175.59;4883826;29;20097;-82
2023/08/18 10:10:57;;;;;;;17.38;5.93;;;;;;;23.78;93.11;99165.38;4882311;29;20506;-82
2023/08/18 10:13:42;;;;;;;7.28;6.57;;;;;;;24.37;91.80;99157.38;4883208;29;20128;-83
2023/08/18 10:16:27;;;;;;;7.75;6.00;;;;;;;24.45;91.89;99147.91;4884148;29;20570;-83
2023/08/18 10:19:11;;;;;;;7.32;6.63;;;;;;;24.41;91.42;99138.03;4883234;29;20042;-80
2023/08/18 10:21:55;;;;;;;7.38;6.63;;;;;;;24.65;91.41;99148.75;4883313;29;20077;-81
2023/08/18 10:24:39;;;;;;;11.00;7.32;;;;;;;24.43;91.94;99135.88;4889145;29;20519;-81
2023/08/18 10:27:29;;;;;;;10.18;7.28;;;;;;;24.42;92.41;99143.09;4883703;29;20069;-81
2023/08/18 10:30:13;;;;;;;8.68;7.28;;;;;;;24.32;92.32;99140.53;4886275;29;20546;-81
2023/08/18 10:33:03;;;;;;;9.95;7.25;;;;;;;24.24;92.63;99148.09;4885991;29;20077;-80
2023/08/18 10:35:47;;;;;;;9.95;7.60;;;;;;;24.33;93.38;99140.25;4888597;29;20040;-80
2023/08/18 10:38:36;;;;;;;10.25;6.78;;;;;;;24.48;92.80;99141.19;4887254;29;20048;-80
2023/08/18 10:41:28;;;;;;;11.38;8.05;;;;;;;24.33;92.42;99134.88;4886612;29;20095;-80
2023/08/18 10:44:13;;;;;;;9.88;8.32;;;;;;;24.49;92.60;99137.41;4881520;29;20052;-81
2023/08/18 10:46:57;;;;;;;13.40;9.60;;;;;;;24.65;92.32;99144.22;4886672;29;20071;-81
2023/08/18 10:49:42;;;;;;;15.25;10.52;;;;;;;24.60;92.86;99149.63;4885518;29;20364;-80
2023/08/18 10:52:30;;;;;;;13.90;11.90;;;;;;;24.38;92.81;99142.06;4883249;29;20052;-80
2023/08/18 10:55:14;;;;;;;21.88;11.85;;;;;;;24.77;91.41;99140.38;4883325;29;20047;-81
2023/08/18 10:57:58;;;;;;;18.90;12.40;;;;;;;24.65;91.92;99136.16;4884516;29;20483;-81
2023/08/18 11:00:42;;;;;;;14.43;11.25;;;;;;;24.86;91.67;99146.69;4887404;29;20091;-81
2023/08/18 11:03:28;;;;;;;16.98;11.65;;;;;;;24.89;91.75;99139.94;4888511;29;20051;-80
2023/08/18 11:06:12;;;;;;;14.82;10.85;;;;;;;24.66;92.39;99135.06;4884636;29;20152;-81
2023/08/18 11:08:58;;;;;;;18.13;12.00;;;;;;;24.63;93.41;99138.31;4887427;29;20044;-80
2023/08/18 11:11:42;;;;;;;16.13;10.32;;;;;;;25.09;91.95;99128.94;4881897;29;20064;-80
2023/08/18 11:14:26;;;;;;;14.48;11.18;;;;;;;25.26;91.29;99116.91;4880721;29;20048;-80
2023/08/18 11:17:10;;;;;;;17.95;11.88;;;;;;;25.28;91.39;99113.91;4883499;29;20044;-80
2023/08/18 11:19:55;;;;;;;16.52;11.18;;;;;;;25.65;90.06;99107.75;4881159;29;20445;-80
2023/08/18 11:22:47;;;;;;;13.60;10.13;;;;;;;25.37;90.20;99112.19;4882913;29;20392;-81
2023/08/18 11:25:32;;;;;;;19.63;10.98;;;;;;;25.41;89.96;99107.81;4884649;29;20197;-80
2023/08/18 11:28:17;;;;;;;15.82;9.93;;;;;;;25.62;89.25;99086.81;4882714;29;20055;-77
2023/08/18 11:31:05;;;;;;;17.23;11.02;;;;;;;25.45;90.07;99081.94;4879060;29;20078;-78
2023/08/18 11:33:49;;;;;;;18.45;10.88;;;;;;;25.39;89.90;99077.75;4880485;29;20131;-78
2023/08/18 11:36:33;;;;;;;16.08;10.20;;;;;;;25.45;90.00;99076.56;4883873;29;20048;-78
2023/08/18 11:39:17;;;;;;;18.45;10.75;;;;;;;25.47;90.00;99065.56;4883216;29;20048;-79
2023/08/18 11:42:02;;;;;;;15.20;10.32;;;;;;;26.02;89.45;99067.59;4884792;29;20179;-78
2023/08/18 11:44:49;;;;;;;14.63;9.95;;;;;;;25.99;88.44;99068.19;4883292;29;20096;-80
2023/08/18 11:47:34;;;;;;;16.10;9.80;;;;;;;25.45;89.50;99049.72;4882928;29;20096;-79
2023/08/18 11:50:21;;;;;;;19.25;10.13;;;;;;;25.62;89.72;99053.78;4884348;29;20092;-78
2023/08/18 11:53:09;;;;;;;11.48;9.38;;;;;;;25.76;88.91;99054.63;4881908;29;20064;-79
2023/08/18 11:55:53;;;;;;;12.20;9.75;;;;;;;25.29;90.19;99051.84;4876701;29;20101;-79
2023/08/18 11:58:37;;;;;;;16.67;9.70;;;;;;;25.28;90.43;99054.81;4880908;29;20096;-78
2023/08/18 12:01:21;;;;;;;14.77;8.98;;;;;;;25.39;90.26;99061.63;4885611;29;20048;-78
2023/08/18 12:04:11;;;;;;;13.68;9.20;;;;;;;25.30;90.11;99055.31;4883619;29;20431;-78
2023/08/18 12:06:55;;;;;;;14.27;9.48;;;;;;;25.23;90.08;99043.06;4883990;29;20552;-78
2023/08/18 12:09:39;;;;;;;17.20;10.07;;;;;;;25.30;90.35;99025.75;4885071;29;20090;-77
2023/08/18 12:12:23;;;;;;;17.30;9.63;;;;;;;25.66;89.98;99033.28;4885847;29;20100;-77
2023/08/18 12:15:08;;;;;;;14.98;9.13;;;;;;;25.85;88.41;99040.47;4888312;29;20047;-79
2023/08/18 12:17:53;;;;;;;11.95;8.75;;;;;;;25.95;88.90;99040.31;4885646;29;20040;-78
2023/08/18 12:20:37;;;;;;;9.63;8.27;;;;;;;26.22;87.64;99031.47;4886936;29;20129;-78
2023/08/18 12:23:21;;;;;;;12.55;8.57;;;;;;;26.19;87.48;99028.59;4882841;29;20039;-78
2023/08/18 12:26:05;;;;;;;12.35;7.22;;;;;;;26.51;86.48;99030.34;4885645;29;20071;-79
2023/08/18 12:28:49;;;;;;;10.05;6.95;;;;;;;26.74;85.43;99029.63;4880053;29;20092;-79
2023/08/18 12:31:34;;;;;;;7.97;7.03;;;;;;;26.75;84.74;99023.13;4886208;29;20113;-79
2023/08/18 12:34:18;;;;;;;13.32;7.63;;;;;;;26.56;85.29;99016.00;4883881;29;20088;-81
2023/08/18 12:37:02;;;;;;;9.05;6.85;;;;;;;26.79;84.46;99018.72;4887916;29;20092;-81
2023/08/18 12:39:47;;;;;;;10.07;7.35;;;;;;;26.63;83.94;99020.97;4883935;29;20086;-82
2023/08/18 12:42:32;;;;;;;11.48;6.50;;;;;;;26.76;83.91;99013.97;4886447;29;20051;-81
2023/08/18 12:45:16;;;;;;;7.93;6.90;;;;;;;26.64;83.93;99017.19;4889192;29;20177;-81
2023/08/18 12:48:00;;;;;;;8.88;6.50;;;;;;;26.54;84.70;99004.75;4884722;29;20040;-81
2023/08/18 12:50:44;;;;;;;10.40;5.70;;;;;;;26.78;84.13;98991.00;4886947;29;20418;-83